Time;durP1;ratioP1;P1;durP2;ratioP2;P2;SDS_P1;SDS_P2;PMS_P1;PMS_P2;Temp;Humidity;BMP_temperature;BMP_pressure;BME280_temperature;BME280_humidity;BME280_pressure;Samples;Min_cycle;Max_cycle;Signal;HPM_P1;HPM_P2
2023/09/14 00:01:32;;;;;;;8.63;3.15;;;;;;;14.41;84.71;101385.59;7393354;19;20018;-72
2023/09/14 00:04:01;;;;;;;6.13;3.13;;;;;;;14.39;85.16;101392.69;7392748;19;20384;-72
2023/09/14 00:06:32;;;;;;;6.78;3.05;;;;;;;14.34;85.37;101387.53;7392052;19;20082;-71
2023/09/14 00:09:00;;;;;;;6.28;3.42;;;;;;;14.31;85.90;101390.25;7394067;19;20039;-71
2023/09/14 00:11:29;;;;;;;3.47;2.72;;;;;;;14.27;86.09;101400.03;7395103;19;20376;-71
2023/09/14 00:13:57;;;;;;;5.07;2.83;;;;;;;14.25;85.95;101393.06;7393179;19;20070;-71
2023/09/14 00:16:26;;;;;;;5.13;2.55;;;;;;;14.24;86.32;101401.88;7392514;19;20007;-71
2023/09/14 00:18:54;;;;;;;6.05;3.00;;;;;;;14.22;86.43;101401.06;7392951;19;20116;-71
2023/09/14 00:21:23;;;;;;;7.57;3.25;;;;;;;14.18;86.60;101402.91;7393333;19;20015;-71
2023/09/14 00:23:54;;;;;;;6.05;3.15;;;;;;;14.17;86.19;101415.22;7392118;19;20014;-71
2023/09/14 00:26:22;;;;;;;7.60;3.83;;;;;;;14.17;86.19;101409.94;7394563;19;20006;-71
2023/09/14 00:28:51;;;;;;;8.30;3.15;;;;;;;14.16;86.69;101402.94;7398341;19;20010;-71
2023/09/14 00:31:19;;;;;;;7.78;3.72;;;;;;;14.14;86.30;101414.44;7398748;19;20018;-71
2023/09/14 00:33:47;;;;;;;4.80;3.03;;;;;;;14.08;86.86;101414.59;7400650;19;20007;-71
2023/09/14 00:36:16;;;;;;;4.70;2.92;;;;;;;14.07;86.66;101412.88;7401624;19;20030;-71
2023/09/14 00:38:44;;;;;;;6.82;3.08;;;;;;;14.04;86.86;101423.50;7403211;19;20011;-71
2023/09/14 00:41:15;;;;;;;5.28;2.63;;;;;;;14.01;86.63;101424.44;7401253;19;20035;-72
2023/09/14 00:43:44;;;;;;;5.97;3.38;;;;;;;14.01;86.70;101424.44;7401000;19;20086;-71
2023/09/14 00:46:12;;;;;;;6.78;2.85;;;;;;;13.98;86.47;101416.63;7401159;19;20010;-70
2023/09/14 00:48:41;;;;;;;6.25;3.40;;;;;;;13.96;86.73;101423.69;7403755;19;20019;-70
2023/09/14 00:51:10;;;;;;;5.72;2.92;;;;;;;13.96;86.62;101419.31;7400925;19;20011;-71
2023/09/14 00:53:39;;;;;;;5.57;2.75;;;;;;;13.96;86.63;101415.78;7400220;19;20066;-71
2023/09/14 00:56:08;;;;;;;7.18;3.25;;;;;;;13.94;86.69;101414.94;7401092;19;20014;-71
2023/09/14 00:58:39;;;;;;;5.50;2.85;;;;;;;13.92;86.64;101416.78;7401438;19;20002;-71
2023/09/14 01:01:08;;;;;;;4.50;2.47;;;;;;;13.89;86.56;101412.44;7398384;19;20022;-72
2023/09/14 01:03:36;;;;;;;5.28;3.13;;;;;;;13.88;86.79;101415.13;7397115;19;20025;-71
2023/09/14 01:06:07;;;;;;;6.57;2.92;;;;;;;13.45;86.73;101344.06;7400311;19;20070;-71
2023/09/14 01:08:37;;;;;;;5.00;2.67;;;;;;;13.86;86.85;101401.94;7398292;19;20022;-71
2023/09/14 01:11:05;;;;;;;7.93;2.70;;;;;;;13.85;86.94;101403.72;7397663;19;20018;-72
2023/09/14 01:13:46;;;;;;;8.85;3.08;;;;;;;13.85;86.77;101408.16;7392141;19;20007;-70
2023/09/14 01:16:20;;;;;;;5.60;2.90;;;;;;;13.84;87.03;101401.16;7399650;19;20011;-69
2023/09/14 01:18:55;;;;;;;5.97;2.97;;;;;;;13.83;86.95;101405.53;7399110;19;20015;-68
2023/09/14 01:21:43;;;;;;;6.85;3.00;;;;;;;13.82;87.29;101406.44;7397396;19;20007;-69
2023/09/14 01:24:22;;;;;;;5.72;2.67;;;;;;;13.81;87.79;101412.63;7397716;19;20326;-70
2023/09/14 01:26:54;;;;;;;6.78;2.85;;;;;;;13.81;87.05;101411.75;7397240;19;20027;-69
2023/09/14 01:29:23;;;;;;;10.27;3.38;;;;;;;13.79;87.32;101409.16;7397231;19;20032;-69
2023/09/14 01:31:51;;;;;;;6.10;3.03;;;;;;;13.80;86.99;101410.00;7398939;19;20019;-69
2023/09/14 01:34:21;;;;;;;8.00;2.67;;;;;;;13.81;86.97;101411.75;7396705;19;20411;-69
2023/09/14 01:36:53;;;;;;;5.45;2.50;;;;;;;13.77;87.01;101400.41;7398790;19;20016;-69
2023/09/14 01:39:22;;;;;;;7.45;2.95;;;;;;;13.82;86.98;101400.31;7397457;19;20022;-70
2023/09/14 01:41:55;;;;;;;11.77;3.35;;;;;;;13.82;86.98;101405.56;7398586;19;20015;-69
2023/09/14 01:44:25;;;;;;;8.68;3.20;;;;;;;13.80;87.22;101410.91;7396896;19;20014;-69
2023/09/14 01:46:53;;;;;;;5.88;2.92;;;;;;;13.77;87.08;101416.22;7397974;19;20034;-69
2023/09/14 01:49:22;;;;;;;7.03;3.50;;;;;;;13.77;87.23;101415.38;7398011;19;20481;-69
2023/09/14 01:51:50;;;;;;;6.32;2.83;;;;;;;13.75;87.22;101414.53;7398524;19;20018;-68
2023/09/14 01:54:19;;;;;;;11.73;3.13;;;;;;;13.75;87.24;101415.41;7396551;19;20014;-69
2023/09/14 01:56:47;;;;;;;4.05;2.40;;;;;;;13.77;87.21;101421.50;7397758;19;20388;-70
2023/09/14 01:59:18;;;;;;;4.32;2.72;;;;;;;13.79;87.35;101418.84;7399068;19;20506;-69
2023/09/14 02:01:47;;;;;;;7.97;3.22;;;;;;;13.79;87.09;101419.72;7400399;19;20027;-70
2023/09/14 02:04:15;;;;;;;6.32;2.53;;;;;;;13.78;87.01;101417.97;7396117;19;20379;-70
2023/09/14 02:06:44;;;;;;;5.80;3.00;;;;;;;13.78;87.20;101419.75;7397716;19;20031;-69
2023/09/14 02:09:12;;;;;;;11.23;3.78;;;;;;;13.77;87.10;101418.88;7396324;19;20011;-70
2023/09/14 02:11:41;;;;;;;7.53;2.72;;;;;;;13.76;87.26;101429.47;7395768;19;20010;-70
2023/09/14 02:14:09;;;;;;;6.43;3.38;;;;;;;13.74;87.29;101412.81;7395668;19;20014;-70
2023/09/14 02:16:40;;;;;;;8.70;2.70;;;;;;;13.73;87.42;101421.63;7397359;19;20018;-69
2023/09/14 02:19:09;;;;;;;9.43;3.25;;;;;;;13.72;87.54;101417.25;7396819;19;20070;-70
2023/09/14 02:21:37;;;;;;;4.38;2.65;;;;;;;13.72;87.42;101420.75;7397193;19;20014;-69
2023/09/14 02:24:06;;;;;;;4.57;2.83;;;;;;;13.72;87.63;101420.75;7395329;19;20019;-69
2023/09/14 02:26:35;;;;;;;7.10;2.97;;;;;;;13.72;87.64;101418.13;7396525;19;20014;-69
2023/09/14 02:29:03;;;;;;;6.70;3.25;;;;;;;13.71;87.45;101426.06;7396604;19;20007;-69
2023/09/14 02:31:32;;;;;;;4.45;2.40;;;;;;;13.71;87.37;101426.97;7396858;19;20014;-69
2023/09/14 02:34:03;;;;;;;5.07;2.58;;;;;;;13.71;87.37;101424.31;7395179;19;20014;-69
2023/09/14 02:36:31;;;;;;;7.72;2.70;;;;;;;13.69;87.41;101431.38;7396687;19;20027;-68
2023/09/14 02:38:59;;;;;;;5.10;2.53;;;;;;;13.67;87.42;101428.78;7396459;19;20445;-70
2023/09/14 02:41:28;;;;;;;4.25;2.63;;;;;;;13.69;87.33;101423.47;7396276;19;20018;-69
2023/09/14 02:43:56;;;;;;;6.35;3.63;;;;;;;13.69;87.50;101429.59;7395241;19;20014;-68
2023/09/14 02:46:25;;;;;;;5.18;2.75;;;;;;;13.70;87.37;101433.13;7396427;19;20011;-70
2023/09/14 02:48:53;;;;;;;7.50;2.40;;;;;;;13.71;87.21;101431.34;7394721;19;20014;-70
2023/09/14 02:51:24;;;;;;;6.97;2.92;;;;;;;13.70;87.33;101435.75;7393655;19;20011;-70
2023/09/14 02:53:53;;;;;;;5.50;2.90;;;;;;;13.69;87.24;101449.84;7395401;19;20020;-69
2023/09/14 02:56:21;;;;;;;5.88;3.38;;;;;;;13.68;87.12;101448.09;7395983;19;20027;-70
2023/09/14 02:58:50;;;;;;;6.40;3.20;;;;;;;13.67;87.32;101449.00;7395953;19;20027;-70
2023/09/14 03:01:20;;;;;;;7.47;2.90;;;;;;;13.67;87.73;101451.63;7395377;19;20014;-70
2023/09/14 03:03:47;;;;;;;7.97;3.03;;;;;;;13.65;87.51;101450.84;7395081;19;20022;-69
2023/09/14 03:06:15;;;;;;;6.03;3.20;;;;;;;13.66;87.47;101457.81;7393656;19;20074;-69
2023/09/14 03:08:46;;;;;;;5.90;3.15;;;;;;;13.64;87.60;101457.84;7394331;19;20010;-70
2023/09/14 03:11:15;;;;;;;9.88;3.58;;;;;;;13.63;87.62;101458.75;7395845;19;20011;-69
2023/09/14 03:13:43;;;;;;;10.60;3.50;;;;;;;13.60;87.60;101455.34;7393243;19;20527;-69
2023/09/14 03:16:12;;;;;;;7.30;3.05;;;;;;;13.58;87.54;101463.25;7395483;19;20070;-69
2023/09/14 03:18:40;;;;;;;7.03;2.95;;;;;;;13.57;87.65;101468.56;7395015;19;20031;-70
2023/09/14 03:21:23;;;;;;;8.77;3.10;;;;;;;13.56;87.46;101474.75;7394956;19;20514;-70
2023/09/14 03:23:54;;;;;;;16.02;3.92;;;;;;;13.54;87.46;101471.28;7393634;19;20082;-70
2023/09/14 03:26:23;;;;;;;13.65;3.10;;;;;;;13.51;87.73;101462.53;7395660;19;20086;-70
2023/09/14 03:28:52;;;;;;;9.43;3.28;;;;;;;13.50;87.63;101476.63;7393559;19;20019;-70
2023/09/14 03:31:21;;;;;;;5.38;3.78;;;;;;;13.45;88.00;101473.22;7394997;19;20482;-69
2023/09/14 03:33:52;;;;;;;8.23;3.13;;;;;;;13.41;88.10;101471.56;7393440;19;20519;-68
2023/09/14 03:36:21;;;;;;;13.07;3.78;;;;;;;13.37;88.03;101480.44;7395209;19;20066;-69
2023/09/14 03:38:49;;;;;;;6.28;2.70;;;;;;;13.32;87.81;101482.25;7394193;19;20014;-69
2023/09/14 03:41:20;;;;;;;6.47;3.30;;;;;;;13.23;88.27;101477.19;7394127;19;20081;-69
2023/09/14 03:43:49;;;;;;;7.20;3.80;;;;;;;13.20;88.26;101488.66;7392938;19;20070;-70
2023/09/14 03:46:18;;;;;;;6.88;3.55;;;;;;;13.12;88.31;101494.09;7394317;19;20469;-70
2023/09/14 03:48:46;;;;;;;10.55;6.35;;;;;;;13.06;88.39;101496.84;7393326;19;20014;-69
2023/09/14 03:51:14;;;;;;;7.05;3.60;;;;;;;13.00;88.54;101503.13;7394607;19;20206;-69
2023/09/14 03:53:43;;;;;;;7.07;3.70;;;;;;;12.92;88.67;101504.16;7393585;19;20070;-70
2023/09/14 03:56:21;;;;;;;7.20;3.75;;;;;;;12.84;88.99;101504.31;7394238;19;20362;-70
2023/09/14 03:58:49;;;;;;;8.13;4.03;;;;;;;12.76;88.86;101507.06;7394600;19;20086;-70
2023/09/14 04:01:18;;;;;;;8.20;3.50;;;;;;;12.68;89.14;101511.63;7393713;19;20541;-69
2023/09/14 04:03:47;;;;;;;7.70;3.92;;;;;;;12.61;89.07;101517.88;7399231;19;20436;-71
2023/09/14 04:06:15;;;;;;;6.82;3.65;;;;;;;12.53;89.14;101521.50;7402036;19;20066;-69
2023/09/14 04:08:44;;;;;;;7.35;3.80;;;;;;;12.46;89.17;101519.03;7400084;19;20014;-68
2023/09/14 04:11:19;;;;;;;6.00;3.78;;;;;;;12.41;88.99;101526.13;7401266;19;20028;-69
2023/09/14 04:13:50;;;;;;;6.85;3.70;;;;;;;12.37;89.09;101528.81;7399210;19;20077;-69
2023/09/14 04:16:18;;;;;;;7.30;3.88;;;;;;;12.33;88.88;101542.03;7401662;19;20010;-69
2023/09/14 04:18:47;;;;;;;6.95;3.65;;;;;;;12.30;88.78;101536.84;7400511;19;20024;-69
2023/09/14 04:21:15;;;;;;;7.72;3.95;;;;;;;12.26;89.01;101541.28;7398173;19;20541;-69
2023/09/14 04:23:45;;;;;;;9.05;4.28;;;;;;;12.25;88.83;101541.31;7399763;19;20078;-69
2023/09/14 04:26:13;;;;;;;7.95;3.85;;;;;;;12.20;88.77;101538.75;7400770;19;20010;-71
2023/09/14 04:28:41;;;;;;;8.15;3.95;;;;;;;12.17;88.80;101539.66;7399270;19;20019;-70
2023/09/14 04:31:12;;;;;;;6.82;3.97;;;;;;;12.15;88.88;101537.94;7400463;19;20070;-70
2023/09/14 04:33:42;;;;;;;8.90;4.10;;;;;;;12.10;88.87;101540.66;7399475;19;20020;-69
2023/09/14 04:36:10;;;;;;;9.02;4.10;;;;;;;12.08;88.85;101541.56;7400116;19;20450;-69
2023/09/14 04:38:38;;;;;;;11.40;4.55;;;;;;;12.03;88.96;101549.50;7399831;19;20482;-69
2023/09/14 04:41:08;;;;;;;6.07;4.20;;;;;;;12.00;88.63;101542.53;7401047;19;20028;-69
2023/09/14 04:43:34;;;;;;;7.10;4.60;;;;;;;11.96;88.89;101542.63;7398133;19;20017;-70
2023/09/14 04:46:08;;;;;;;7.93;4.25;;;;;;;11.95;88.98;101540.84;7402063;19;20011;-70
2023/09/14 04:48:41;;;;;;;9.32;4.55;;;;;;;11.90;89.03;101544.44;7400018;19;20011;-69
2023/09/14 04:51:10;;;;;;;7.05;4.10;;;;;;;11.89;88.87;101552.31;7397905;19;20485;-69
2023/09/14 04:53:38;;;;;;;9.50;4.78;;;;;;;11.86;89.03;101553.22;7398570;19;20505;-70
2023/09/14 04:56:07;;;;;;;8.60;4.65;;;;;;;11.82;88.94;101554.16;7399942;19;20026;-69
2023/09/14 04:58:36;;;;;;;9.63;4.13;;;;;;;11.78;88.90;101552.47;7399536;19;20014;-69
2023/09/14 05:01:05;;;;;;;7.88;4.18;;;;;;;11.76;88.98;101561.28;7399473;19;20078;-69
2023/09/14 05:03:34;;;;;;;5.20;3.67;;;;;;;11.71;88.89;101566.59;7398555;19;20030;-70
2023/09/14 05:06:05;;;;;;;8.07;4.28;;;;;;;11.67;88.97;101565.75;7395890;19;20090;-70
2023/09/14 05:08:34;;;;;;;6.38;3.95;;;;;;;11.65;89.19;101569.28;7395859;19;20533;-70
2023/09/14 05:11:03;;;;;;;9.73;4.40;;;;;;;11.61;89.23;101575.50;7398915;19;20011;-70
2023/09/14 05:13:32;;;;;;;6.93;3.97;;;;;;;11.57;89.16;101570.28;7393410;19;20038;-70
2023/09/14 05:16:00;;;;;;;10.35;4.13;;;;;;;11.56;89.20;101570.28;7398701;19;20006;-71
2023/09/14 05:18:29;;;;;;;11.57;3.83;;;;;;;11.54;89.28;101579.97;7398700;19;20062;-71
2023/09/14 05:20:57;;;;;;;10.77;4.57;;;;;;;11.52;89.54;101579.97;7395770;19;20011;-70
2023/09/14 05:23:28;;;;;;;7.75;4.72;;;;;;;11.50;89.38;101576.50;7395873;19;20415;-70
2023/09/14 05:25:57;;;;;;;6.93;4.50;;;;;;;11.49;89.53;101585.25;7398774;19;20015;-70
2023/09/14 05:28:25;;;;;;;6.28;3.75;;;;;;;11.47;89.30;101584.41;7397265;19;20362;-70
2023/09/14 05:30:54;;;;;;;8.65;4.80;;;;;;;11.44;89.39;101583.56;7398155;19;20078;-70
2023/09/14 05:33:22;;;;;;;10.07;4.43;;;;;;;11.45;89.43;101583.56;7397962;19;20010;-70
2023/09/14 05:35:51;;;;;;;6.57;4.15;;;;;;;11.44;89.54;101587.06;7398597;19;20015;-70
2023/09/14 05:38:20;;;;;;;7.43;4.00;;;;;;;11.42;89.67;101596.72;7395836;19;20021;-71
2023/09/14 05:40:52;;;;;;;6.10;4.28;;;;;;;11.40;89.82;101599.38;7396222;19;20014;-72
2023/09/14 05:43:20;;;;;;;6.05;4.40;;;;;;;11.39;89.85;101597.63;7396018;19;20045;-71
2023/09/14 05:45:50;;;;;;;8.38;4.15;;;;;;;11.39;89.82;101596.78;7397880;19;20066;-72
2023/09/14 05:48:19;;;;;;;9.07;4.88;;;;;;;11.38;89.89;101598.50;7397697;19;20011;-70
2023/09/14 05:50:47;;;;;;;11.52;5.38;;;;;;;11.38;90.03;101597.66;7395505;19;20075;-71
2023/09/14 05:53:16;;;;;;;10.02;4.47;;;;;;;11.35;89.98;101598.56;7396729;19;20186;-71
2023/09/14 05:55:44;;;;;;;9.05;5.05;;;;;;;11.35;90.22;101603.81;7395475;19;20084;-71
2023/09/14 05:58:15;;;;;;;6.18;3.95;;;;;;;11.36;90.15;101609.94;7397390;19;20494;-70
2023/09/14 06:01:06;;;;;;;8.02;4.40;;;;;;;11.37;90.05;101602.06;7397621;19;20015;-71
2023/09/14 06:03:34;;;;;;;9.73;4.50;;;;;;;11.38;90.21;101595.03;7396316;19;20095;-70
2023/09/14 06:06:03;;;;;;;7.47;4.72;;;;;;;11.41;90.08;101605.50;7396888;19;20011;-70
2023/09/14 06:08:31;;;;;;;9.60;4.60;;;;;;;11.43;90.01;101605.50;7397166;19;20070;-70
2023/09/14 06:11:00;;;;;;;9.50;4.47;;;;;;;11.45;90.07;101606.31;7397207;19;20025;-69
2023/09/14 06:13:45;;;;;;;7.38;4.43;;;;;;;11.47;89.93;101612.44;7396635;19;20023;-70
2023/09/14 06:16:14;;;;;;;8.48;3.95;;;;;;;11.49;89.89;101608.91;7395175;19;20037;-70
2023/09/14 06:18:43;;;;;;;7.82;4.22;;;;;;;11.53;89.77;101617.63;7397641;19;20086;-70
2023/09/14 06:21:11;;;;;;;9.63;4.78;;;;;;;11.57;89.63;101617.59;7396876;19;20485;-70
2023/09/14 06:23:40;;;;;;;8.98;4.47;;;;;;;11.60;89.63;101607.91;7395575;19;20417;-70
2023/09/14 06:26:08;;;;;;;6.93;4.38;;;;;;;11.64;89.50;101614.84;7396059;19;20014;-70
2023/09/14 06:28:39;;;;;;;6.50;4.40;;;;;;;11.67;89.45;101620.09;7395509;19;20094;-69
2023/09/14 06:31:08;;;;;;;8.38;4.07;;;;;;;11.73;89.33;101622.66;7395047;19;20019;-70
2023/09/14 06:33:36;;;;;;;7.15;4.22;;;;;;;11.76;89.10;101619.97;7395846;19;20027;-69
2023/09/14 06:36:05;;;;;;;7.18;4.38;;;;;;;11.80;89.16;101626.91;7396473;19;20086;-69
2023/09/14 06:38:33;;;;;;;7.28;4.30;;;;;;;11.83;88.85;101629.53;7395835;19;20473;-70
2023/09/14 06:41:02;;;;;;;8.00;5.03;;;;;;;11.85;88.53;101625.13;7395935;19;20090;-69
2023/09/14 06:43:30;;;;;;;9.80;4.55;;;;;;;11.91;88.34;101618.91;7395952;19;20014;-71
2023/09/14 06:46:01;;;;;;;7.90;4.93;;;;;;;11.95;88.22;101627.63;7395680;19;20421;-71
2023/09/14 06:48:30;;;;;;;6.90;4.95;;;;;;;12.00;88.21;101633.72;7395672;19;20036;-70
2023/09/14 06:50:58;;;;;;;7.45;4.30;;;;;;;12.05;88.12;101631.91;7393535;19;20089;-70
2023/09/14 06:53:27;;;;;;;8.43;4.38;;;;;;;12.11;87.84;101631.81;7395463;19;20078;-68
2023/09/14 06:55:55;;;;;;;8.18;3.63;;;;;;;12.18;87.81;101632.59;7394987;19;20537;-70
2023/09/14 06:58:23;;;;;;;6.65;3.83;;;;;;;12.24;87.57;101627.25;7395749;19;20074;-70
2023/09/14 07:00:52;;;;;;;5.80;3.30;;;;;;;12.32;87.54;101630.66;7396115;19;20066;-70
2023/09/14 07:03:23;;;;;;;6.55;3.17;;;;;;;12.39;87.24;101623.53;7395094;19;20027;-70
2023/09/14 07:05:51;;;;;;;6.70;3.13;;;;;;;12.47;86.96;101626.94;7395316;19;20074;-71
2023/09/14 07:08:20;;;;;;;6.03;3.30;;;;;;;12.53;86.89;101629.44;7395318;19;20077;-70
2023/09/14 07:10:48;;;;;;;8.52;3.55;;;;;;;12.61;86.40;101633.72;7395359;19;20015;-70
2023/09/14 07:13:17;;;;;;;5.28;3.20;;;;;;;12.67;86.30;101628.34;7393069;19;20085;-70
2023/09/14 07:15:45;;;;;;;6.35;3.25;;;;;;;12.74;86.38;101631.75;7393862;19;20085;-71
2023/09/14 07:18:30;;;;;;;6.78;3.40;;;;;;;12.83;85.82;101632.47;7395294;19;20086;-70
2023/09/14 07:21:01;;;;;;;7.40;2.90;;;;;;;12.91;85.44;101632.34;7395298;19;20073;-70
2023/09/14 07:23:30;;;;;;;5.15;3.00;;;;;;;12.98;85.46;101633.13;7393744;19;20015;-70
2023/09/14 07:25:59;;;;;;;5.90;2.20;;;;;;;13.06;85.12;101644.38;7395259;19;20070;-70
2023/09/14 07:28:27;;;;;;;5.30;2.60;;;;;;;13.12;84.66;101636.34;7394860;19;20081;-70
2023/09/14 07:30:56;;;;;;;6.55;3.42;;;;;;;13.20;84.46;101641.50;7394857;19;20070;-70
2023/09/14 07:33:25;;;;;;;10.95;5.22;;;;;;;13.27;84.40;101647.50;7394074;19;20013;-70
2023/09/14 07:35:56;;;;;;;3.75;2.75;;;;;;;13.35;84.16;101645.59;7393115;19;20010;-70
2023/09/14 07:38:25;;;;;;;8.45;3.15;;;;;;;13.40;83.94;101656.97;7398794;19;20556;-70
2023/09/14 07:40:53;;;;;;;6.15;2.83;;;;;;;13.47;83.56;101655.06;7402762;19;20097;-70
2023/09/14 07:43:22;;;;;;;4.95;2.97;;;;;;;13.54;83.35;101661.13;7401152;19;20066;-70
2023/09/14 07:45:50;;;;;;;14.10;3.15;;;;;;;13.61;83.15;101654.78;7402392;19;20039;-70
2023/09/14 07:48:19;;;;;;;10.18;5.75;;;;;;;13.68;83.02;101664.34;7400521;19;20011;-69
2023/09/14 07:50:47;;;;;;;7.68;3.78;;;;;;;13.75;82.98;101672.97;7403045;19;20007;-70
2023/09/14 07:53:18;;;;;;;7.38;3.28;;;;;;;13.83;82.69;101671.94;7401061;19;20035;-70
2023/09/14 07:55:52;;;;;;;6.47;2.60;;;;;;;13.90;82.28;101675.31;7402037;19;20073;-69
2023/09/14 07:58:21;;;;;;;3.97;2.45;;;;;;;13.97;82.15;101673.41;7401989;19;20015;-69
2023/09/14 08:00:49;;;;;;;3.35;2.05;;;;;;;14.05;81.86;101681.16;7401524;19;20031;-71
2023/09/14 08:03:18;;;;;;;7.72;2.80;;;;;;;14.12;81.54;101678.38;7400395;19;20386;-71
2023/09/14 08:05:46;;;;;;;7.68;2.88;;;;;;;14.20;81.15;101685.25;7401263;19;20068;-71
2023/09/14 08:08:17;;;;;;;5.93;2.75;;;;;;;14.27;80.97;101678.94;7400927;19;20015;-71
2023/09/14 08:10:51;;;;;;;3.70;1.90;;;;;;;14.34;80.33;101677.88;7398971;19;20393;-71
2023/09/14 08:13:20;;;;;;;4.90;2.10;;;;;;;14.41;80.26;101678.63;7399487;19;20015;-70
2023/09/14 08:15:48;;;;;;;6.78;2.10;;;;;;;14.47;80.00;101675.84;7398747;19;20091;-70
2023/09/14 08:18:18;;;;;;;5.78;2.08;;;;;;;14.54;79.14;101689.78;7400786;19;20018;-70
2023/09/14 08:20:46;;;;;;;5.78;2.05;;;;;;;14.59;78.40;101688.75;7398039;19;20017;-70
2023/09/14 08:23:19;;;;;;;5.88;1.95;;;;;;;14.66;78.43;101686.88;7399584;19;20394;-70
2023/09/14 08:25:47;;;;;;;6.53;1.60;;;;;;;14.73;78.28;101693.72;7398117;19;20010;-70
2023/09/14 08:28:17;;;;;;;6.70;1.92;;;;;;;14.79;77.65;101690.94;7397455;19;20423;-70
2023/09/14 08:30:47;;;;;;;5.93;1.90;;;;;;;14.85;76.35;101692.59;7397870;19;20074;-70
2023/09/14 08:33:15;;;;;;;4.57;1.63;;;;;;;14.92;76.54;101688.88;7399037;19;20462;-69
2023/09/14 08:35:46;;;;;;;4.63;1.73;;;;;;;14.99;76.53;101692.25;7397409;19;20031;-70
2023/09/14 08:38:14;;;;;;;4.78;1.50;;;;;;;15.07;75.76;101686.75;7400894;19;20089;-70
2023/09/14 08:40:46;;;;;;;4.97;2.17;;;;;;;15.15;75.06;101685.66;7400633;19;20015;-70
2023/09/14 08:43:15;;;;;;;5.75;2.08;;;;;;;15.23;75.08;101685.47;7399058;19;20478;-70
2023/09/14 08:45:44;;;;;;;5.85;1.52;;;;;;;15.31;74.36;101683.47;7398359;19;20044;-70
2023/09/14 08:48:15;;;;;;;3.60;1.45;;;;;;;15.39;74.01;101677.09;7399767;19;20015;-70
2023/09/14 08:50:46;;;;;;;5.20;1.52;;;;;;;15.48;73.86;101680.38;7397813;19;20069;-70
2023/09/14 08:53:16;;;;;;;4.68;1.48;;;;;;;15.57;73.75;101688.94;7399106;19;20081;-70
2023/09/14 08:55:47;;;;;;;5.00;2.35;;;;;;;15.68;73.21;101689.53;7398953;19;20018;-70
2023/09/14 08:58:17;;;;;;;3.83;1.60;;;;;;;15.80;72.17;101694.47;7399750;19;20010;-68
2023/09/14 09:00:46;;;;;;;6.65;1.63;;;;;;;15.92;71.82;101688.00;7399278;19;20070;-67
2023/09/14 09:03:15;;;;;;;6.43;1.65;;;;;;;16.02;71.09;101693.88;7398325;19;20082;-68
2023/09/14 09:05:44;;;;;;;3.30;1.17;;;;;;;16.10;70.82;101691.03;7399204;19;20018;-67
2023/09/14 09:08:13;;;;;;;4.30;1.50;;;;;;;16.18;69.84;101699.59;7398926;19;20095;-68
2023/09/14 09:10:42;;;;;;;3.35;1.35;;;;;;;16.23;69.49;101705.63;7396716;19;20014;-68
2023/09/14 09:13:13;;;;;;;4.32;1.13;;;;;;;16.30;69.29;101706.28;7397820;19;20022;-68
2023/09/14 09:15:42;;;;;;;3.40;1.88;;;;;;;16.35;68.76;101695.56;7396757;19;20050;-68
2023/09/14 09:18:11;;;;;;;2.35;1.40;;;;;;;16.43;68.12;101702.38;7399081;19;20082;-68
2023/09/14 09:20:45;;;;;;;4.57;1.27;;;;;;;16.54;67.70;101696.75;7397246;19;20502;-68
2023/09/14 09:23:15;;;;;;;;;;;;;;;16.66;67.22;101697.28;7401063;19;20018;-69
2023/09/14 09:25:45;;;;;;;5.75;1.20;;;;;;;16.80;67.68;101681.78;7397200;19;19919;-70
2023/09/14 09:28:17;;;;;;;7.60;3.80;;;;;;;16.95;66.83;101691.03;7399043;19;20073;-69
2023/09/14 09:30:45;;;;;;;3.47;1.52;;;;;;;17.09;66.17;101686.13;7397665;19;20079;-69
2023/09/14 09:33:14;;;;;;;3.13;1.23;;;;;;;17.25;65.39;101688.28;7397481;19;20074;-68
2023/09/14 09:35:42;;;;;;;3.95;1.50;;;;;;;17.34;64.84;101685.28;7397949;19;20010;-68
2023/09/14 09:38:16;;;;;;;2.70;1.50;;;;;;;17.38;62.27;101689.56;7397806;19;20093;-68
2023/09/14 09:40:46;;;;;;;4.05;1.63;;;;;;;17.42;63.21;101695.63;7397942;19;20431;-69
2023/09/14 09:43:21;;;;;;;5.53;1.38;;;;;;;17.38;61.99;101686.03;7397992;19;20034;-68
2023/09/14 09:45:49;;;;;;;3.22;1.52;;;;;;;17.36;61.79;101690.53;7398300;19;20429;-67
2023/09/14 09:48:18;;;;;;;6.38;1.98;;;;;;;17.31;62.67;101698.63;7397687;19;20070;-68
2023/09/14 09:50:46;;;;;;;4.15;1.25;;;;;;;17.29;62.22;101700.50;7396254;19;20086;-67
2023/09/14 09:53:17;;;;;;;4.72;1.38;;;;;;;17.27;62.70;101699.66;7396609;19;20086;-67
2023/09/14 09:55:47;;;;;;;4.38;1.88;;;;;;;17.30;62.53;101699.59;7398193;19;20015;-69
2023/09/14 09:58:17;;;;;;;5.10;1.45;;;;;;;17.34;62.51;101695.91;7397376;19;20367;-68
2023/09/14 10:00:49;;;;;;;3.83;1.70;;;;;;;17.42;62.32;101690.31;7395731;19;20481;-69
2023/09/14 10:03:19;;;;;;;4.28;2.60;;;;;;;17.52;61.44;101691.72;7397261;19;20011;-69
2023/09/14 10:05:47;;;;;;;5.80;1.65;;;;;;;17.63;61.25;101694.00;7397325;19;20007;-68
2023/09/14 10:08:21;;;;;;;3.60;1.95;;;;;;;17.76;60.70;101691.75;7395073;19;20074;-68
2023/09/14 10:10:51;;;;;;;3.17;1.45;;;;;;;17.87;59.57;101701.97;7395239;19;20382;-68
2023/09/14 10:13:22;;;;;;;2.95;1.40;;;;;;;17.97;59.18;101698.09;7396722;19;20035;-69
2023/09/14 10:15:53;;;;;;;3.45;1.63;;;;;;;18.06;58.91;101696.88;7397005;19;20014;-67
2023/09/14 10:18:24;;;;;;;4.28;2.08;;;;;;;18.16;58.46;101697.38;7397437;19;20086;-68
2023/09/14 10:20:53;;;;;;;3.35;1.48;;;;;;;18.23;58.13;101693.56;7396847;19;20021;-68
2023/09/14 10:23:23;;;;;;;3.33;1.33;;;;;;;18.31;57.98;101687.94;7396231;19;20082;-67
2023/09/14 10:25:53;;;;;;;4.93;1.55;;;;;;;18.37;57.49;101690.38;7397045;19;20070;-67
2023/09/14 10:28:23;;;;;;;3.58;1.63;;;;;;;18.42;57.12;101692.84;7395652;19;20077;-68
2023/09/14 10:30:56;;;;;;;4.55;1.63;;;;;;;18.45;54.97;101695.38;7394915;19;20482;-67
2023/09/14 10:33:27;;;;;;;6.30;1.52;;;;;;;18.45;54.97;101698.03;7395762;19;20077;-67
2023/09/14 10:35:56;;;;;;;4.85;1.80;;;;;;;18.45;54.56;101695.38;7396586;19;20074;-67
2023/09/14 10:38:25;;;;;;;6.47;2.13;;;;;;;18.48;55.01;101697.91;7395744;19;20398;-67
2023/09/14 10:40:55;;;;;;;3.53;1.65;;;;;;;18.55;54.88;101694.94;7396241;19;20007;-67
2023/09/14 10:43:24;;;;;;;4.93;1.48;;;;;;;18.63;54.64;101691.97;7394969;19;20094;-69
2023/09/14 10:46:00;;;;;;;4.10;1.90;;;;;;;18.72;55.12;101688.09;7395694;19;20078;-68
2023/09/14 10:48:31;;;;;;;4.20;1.70;;;;;;;18.81;54.31;101694.81;7393987;19;20355;-68
2023/09/14 10:51:00;;;;;;;4.53;1.95;;;;;;;18.85;53.96;101686.63;7394210;19;20382;-68
2023/09/14 10:53:31;;;;;;;4.03;1.50;;;;;;;18.93;53.25;101688.16;7395030;19;20018;-68
2023/09/14 10:55:59;;;;;;;3.60;1.60;;;;;;;18.98;54.16;101675.53;7396354;19;20421;-68
2023/09/14 10:58:28;;;;;;;4.28;1.88;;;;;;;19.02;53.54;101677.13;7395491;19;20074;-68
2023/09/14 11:01:01;;;;;;;5.90;2.10;;;;;;;19.03;53.62;101678.84;7393545;19;20018;-68
2023/09/14 11:04:05;;;;;;;4.30;1.90;;;;;;;19.01;53.67;101676.25;7395161;19;20014;-68
2023/09/14 11:06:47;;;;;;;4.57;1.92;;;;;;;18.98;52.47;101679.06;7395916;19;20010;-69
2023/09/14 11:09:16;;;;;;;4.32;1.50;;;;;;;18.94;53.63;101679.25;7394521;19;20370;-67
2023/09/14 11:11:46;;;;;;;3.47;1.52;;;;;;;18.85;54.49;101670.69;7389398;19;20026;-68
2023/09/14 11:14:17;;;;;;;3.55;1.92;;;;;;;18.80;54.59;101675.31;7392810;19;20081;-67
2023/09/14 11:16:53;;;;;;;4.63;1.55;;;;;;;18.70;54.26;101672.22;7394100;19;20006;-68
2023/09/14 11:19:52;;;;;;;5.32;1.73;;;;;;;18.62;54.02;101671.63;7392286;19;20010;-67
2023/09/14 11:22:20;;;;;;;3.40;1.75;;;;;;;18.60;54.67;101669.97;7393413;19;20066;-68
2023/09/14 11:24:49;;;;;;;3.50;1.48;;;;;;;18.55;52.43;101672.81;7392179;19;20023;-67
2023/09/14 11:27:21;;;;;;;4.65;1.63;;;;;;;18.50;53.74;101670.34;7393946;19;20078;-65
2023/09/14 11:29:50;;;;;;;4.07;2.08;;;;;;;18.49;53.32;101675.75;7392921;19;20023;-69
2023/09/14 11:32:24;;;;;;;2.97;1.50;;;;;;;18.49;53.24;101675.75;7393265;19;20379;-66
2023/09/14 11:34:58;;;;;;;3.75;1.60;;;;;;;18.53;53.30;101674.69;7394100;19;20020;-68
2023/09/14 11:37:27;;;;;;;4.20;1.73;;;;;;;18.60;53.50;101668.16;7395586;19;20017;-66